Terminal Aerodrome Forecast
Issued by NWS

Home | Current Version | Previous Version | Text Only | Print | Product List | Glossary On
Versions: 1 2 3 4 5 6 7 8 9 10 11 12 13 14 15 16 17 18 19
000
FTUS44 KHGX 240520
TAFLBX
TAF
KLBX 240520Z 2406/2506 VRB03KT P6SM FEW020
     FM240900 VRB03KT 4SM BR FEW015
     FM241400 08005KT P6SM VCSH SCT025 PROB30 2416/2418 TSRA
      BKN035CB
     FM242000 11007KT P6SM SCT250
     FM250300 14004KT P6SM SKC=

USA.gov is the U.S. government's official web portal to all federal, state and local government web resources and services.